sensor_id;sensor_type;location;lat;lon;timestamp;pressure;altitude;pressure_sealevel;temperature;humidity
7888;BME280;3989;48.810;9.208;2024-03-23T00:54:49;97910.97;;;6.80;100.00
7888;BME280;3989;48.810;9.208;2024-03-23T00:57:16;98029.78;;;7.38;100.00
7888;BME280;3989;48.810;9.208;2024-03-23T00:59:42;97968.66;;;7.01;100.00
7888;BME280;3989;48.810;9.208;2024-03-23T01:02:09;97967.53;;;6.96;100.00
7888;BME280;3989;48.810;9.208;2024-03-23T01:04:36;97946.66;;;6.93;100.00
7888;BME280;3989;48.810;9.208;2024-03-23T01:07:04;97957.00;;;6.88;100.00
7888;BME280;3989;48.810;9.208;2024-03-23T01:09:29;98013.50;;;7.42;100.00
7888;BME280;3989;48.810;9.208;2024-03-23T01:11:56;98012.84;;;7.62;100.00
7888;BME280;3989;48.810;9.208;2024-03-23T01:14:23;98055.13;;;7.86;100.00
7888;BME280;3989;48.810;9.208;2024-03-23T01:16:49;98059.19;;;7.97;100.00
7888;BME280;3989;48.810;9.208;2024-03-23T01:19:16;97990.69;;;7.70;100.00
7888;BME280;3989;48.810;9.208;2024-03-23T01:21:44;97977.72;;;7.75;100.00
7888;BME280;3989;48.810;9.208;2024-03-23T01:24:11;98006.56;;;7.92;100.00
7888;BME280;3989;48.810;9.208;2024-03-23T01:26:37;97995.72;;;7.65;100.00
7888;BME280;3989;48.810;9.208;2024-03-23T01:29:04;97965.84;;;7.63;100.00
7888;BME280;3989;48.810;9.208;2024-03-23T01:31:32;98022.91;;;8.04;100.00
7888;BME280;3989;48.810;9.208;2024-03-23T01:34:14;98012.59;;;8.24;100.00
7888;BME280;3989;48.810;9.208;2024-03-23T01:36:41;97853.50;;;7.33;100.00
7888;BME280;3989;48.810;9.208;2024-03-23T01:39:26;98011.06;;;8.29;100.00
7888;BME280;3989;48.810;9.208;2024-03-23T01:41:54;98040.16;;;8.23;100.00
7888;BME280;3989;48.810;9.208;2024-03-23T01:44:20;98006.34;;;8.17;100.00
7888;BME280;3989;48.810;9.208;2024-03-23T01:46:47;97822.44;;;7.04;100.00
7888;BME280;3989;48.810;9.208;2024-03-23T01:49:13;97742.97;;;6.73;100.00
7888;BME280;3989;48.810;9.208;2024-03-23T01:51:41;97982.69;;;8.22;100.00
7888;BME280;3989;48.810;9.208;2024-03-23T01:54:08;97948.06;;;8.01;100.00
7888;BME280;3989;48.810;9.208;2024-03-23T01:56:37;97934.50;;;8.10;100.00
7888;BME280;3989;48.810;9.208;2024-03-23T01:59:03;97923.88;;;8.10;100.00
7888;BME280;3989;48.810;9.208;2024-03-23T02:01:31;97852.06;;;7.74;100.00
7888;BME280;3989;48.810;9.208;2024-03-23T02:03:57;97966.13;;;8.34;100.00
7888;BME280;3989;48.810;9.208;2024-03-23T02:06:25;97968.25;;;8.39;100.00
7888;BME280;3989;48.810;9.208;2024-03-23T02:08:50;97855.44;;;7.98;100.00
7888;BME280;3989;48.810;9.208;2024-03-23T02:11:18;97901.72;;;8.54;100.00
7888;BME280;3989;48.810;9.208;2024-03-23T02:13:46;97958.31;;;9.19;100.00
7888;BME280;3989;48.810;9.208;2024-03-23T02:16:14;97912.94;;;9.06;100.00
7888;BME280;3989;48.810;9.208;2024-03-23T02:18:40;97917.94;;;9.37;100.00
7888;BME280;3989;48.810;9.208;2024-03-23T02:21:07;97882.41;;;9.23;100.00
7888;BME280;3989;48.810;9.208;2024-03-23T02:23:34;97598.13;;;7.73;100.00
7888;BME280;3989;48.810;9.208;2024-03-23T02:26:02;97933.22;;;9.77;100.00
7888;BME280;3989;48.810;9.208;2024-03-23T02:28:28;97934.88;;;9.78;100.00
7888;BME280;3989;48.810;9.208;2024-03-23T02:30:55;97874.91;;;9.61;100.00
7888;BME280;3989;48.810;9.208;2024-03-23T02:33:20;97885.94;;;9.58;100.00
7888;BME280;3989;48.810;9.208;2024-03-23T02:38:23;97931.78;;;10.09;100.00
7888;BME280;3989;48.810;9.208;2024-03-23T02:40:52;97731.88;;;8.93;100.00
7888;BME280;3989;48.810;9.208;2024-03-23T02:43:18;97920.63;;;9.99;100.00
7888;BME280;3989;48.810;9.208;2024-03-23T02:45:45;97690.78;;;8.68;100.00
7888;BME280;3989;48.810;9.208;2024-03-23T02:48:11;97931.75;;;10.30;100.00
7888;BME280;3989;48.810;9.208;2024-03-23T02:50:38;97861.56;;;9.95;100.00
7888;BME280;3989;48.810;9.208;2024-03-23T02:53:04;97902.38;;;10.24;100.00
7888;BME280;3989;48.810;9.208;2024-03-23T02:55:31;97920.56;;;10.54;100.00
7888;BME280;3989;48.810;9.208;2024-03-23T02:58:00;97824.25;;;9.95;100.00
7888;BME280;3989;48.810;9.208;2024-03-23T03:00:27;97725.59;;;9.35;100.00
7888;BME280;3989;48.810;9.208;2024-03-23T03:02:53;97857.78;;;10.11;100.00
7888;BME280;3989;48.810;9.208;2024-03-23T03:05:21;97839.16;;;9.83;100.00
7888;BME280;3989;48.810;9.208;2024-03-23T03:07:46;97874.63;;;9.84;100.00
7888;BME280;3989;48.810;9.208;2024-03-23T03:10:13;97734.59;;;9.00;100.00
7888;BME280;3989;48.810;9.208;2024-03-23T03:12:39;97803.47;;;9.43;100.00
7888;BME280;3989;48.810;9.208;2024-03-23T03:15:13;97895.16;;;9.90;100.00
7888;BME280;3989;48.810;9.208;2024-03-23T03:17:39;97784.81;;;9.09;100.00
7888;BME280;3989;48.810;9.208;2024-03-23T03:20:08;97896.44;;;9.66;100.00
7888;BME280;3989;48.810;9.208;2024-03-23T03:22:38;97816.63;;;8.96;100.00
7888;BME280;3989;48.810;9.208;2024-03-23T03:25:06;97789.63;;;8.71;100.00
7888;BME280;3989;48.810;9.208;2024-03-23T03:27:33;97655.25;;;7.69;100.00
7888;BME280;3989;48.810;9.208;2024-03-23T03:30:02;97705.25;;;8.02;100.00
7888;BME280;3989;48.810;9.208;2024-03-23T03:32:36;97826.28;;;8.76;100.00
7888;BME280;3989;48.810;9.208;2024-03-23T03:35:03;97777.00;;;8.37;100.00
7888;BME280;3989;48.810;9.208;2024-03-23T03:40:11;97878.47;;;9.19;100.00
7888;BME280;3989;48.810;9.208;2024-03-23T03:42:40;97893.84;;;9.45;100.00
7888;BME280;3989;48.810;9.208;2024-03-23T03:45:06;97787.34;;;8.68;100.00
7888;BME280;3989;48.810;9.208;2024-03-23T03:47:35;97856.06;;;9.07;100.00
7888;BME280;3989;48.810;9.208;2024-03-23T03:50:01;97877.53;;;9.06;100.00
7888;BME280;3989;48.810;9.208;2024-03-23T03:52:28;97865.47;;;9.10;100.00
7888;BME280;3989;48.810;9.208;2024-03-23T03:55:01;97853.88;;;9.17;100.00
7888;BME280;3989;48.810;9.208;2024-03-23T03:57:31;97779.78;;;8.93;100.00
7888;BME280;3989;48.810;9.208;2024-03-23T03:59:56;97758.03;;;8.89;100.00
7888;BME280;3989;48.810;9.208;2024-03-23T04:02:23;97821.06;;;9.66;100.00
7888;BME280;3989;48.810;9.208;2024-03-23T04:04:51;97605.22;;;8.64;100.00
7888;BME280;3989;48.810;9.208;2024-03-23T04:07:18;97637.44;;;9.10;100.00
7888;BME280;3989;48.810;9.208;2024-03-23T04:09:46;97812.09;;;10.14;100.00
7888;BME280;3989;48.810;9.208;2024-03-23T04:12:12;97696.94;;;9.37;100.00
7888;BME280;3989;48.810;9.208;2024-03-23T04:14:38;97791.31;;;10.10;100.00
7888;BME280;3989;48.810;9.208;2024-03-23T04:17:06;97780.94;;;10.28;100.00
7888;BME280;3989;48.810;9.208;2024-03-23T04:19:32;97786.34;;;10.54;100.00
7888;BME280;3989;48.810;9.208;2024-03-23T04:22:00;97606.81;;;9.40;100.00
7888;BME280;3989;48.810;9.208;2024-03-23T04:24:26;97784.53;;;10.74;100.00
7888;BME280;3989;48.810;9.208;2024-03-23T04:26:54;97772.63;;;10.77;100.00
7888;BME280;3989;48.810;9.208;2024-03-23T04:29:20;97595.84;;;9.70;100.00
7888;BME280;3989;48.810;9.208;2024-03-23T04:31:47;97817.19;;;10.96;100.00
7888;BME280;3989;48.810;9.208;2024-03-23T04:34:13;97835.25;;;10.81;100.00
7888;BME280;3989;48.810;9.208;2024-03-23T04:36:40;97832.66;;;10.33;100.00
7888;BME280;3989;48.810;9.208;2024-03-23T04:39:08;97743.66;;;9.12;100.00
7888;BME280;3989;48.810;9.208;2024-03-23T04:41:35;97883.47;;;9.84;100.00
7888;BME280;3989;48.810;9.208;2024-03-23T04:44:04;97656.81;;;8.42;100.00
7888;BME280;3989;48.810;9.208;2024-03-23T04:46:31;97740.31;;;8.96;100.00
7888;BME280;3989;48.810;9.208;2024-03-23T04:48:58;97820.28;;;9.44;100.00
7888;BME280;3989;48.810;9.208;2024-03-23T04:54:04;97785.25;;;9.13;100.00
7888;BME280;3989;48.810;9.208;2024-03-23T04:56:33;97854.75;;;9.52;100.00
7888;BME280;3989;48.810;9.208;2024-03-23T04:58:59;97636.31;;;8.15;100.00
7888;BME280;3989;48.810;9.208;2024-03-23T05:01:27;97631.97;;;8.07;100.00
7888;BME280;3989;48.810;9.208;2024-03-23T05:03:53;97806.19;;;9.22;100.00
7888;BME280;3989;48.810;9.208;2024-03-23T05:06:20;97663.16;;;8.20;100.00
7888;BME280;3989;48.810;9.208;2024-03-23T05:08:45;97811.56;;;9.29;100.00
7888;BME280;3989;48.810;9.208;2024-03-23T05:11:12;97778.03;;;9.07;100.00
7888;BME280;3989;48.810;9.208;2024-03-23T05:16:30;97689.28;;;8.59;100.00
7888;BME280;3989;48.810;9.208;2024-03-23T05:18:57;97697.75;;;8.48;100.00
7888;BME280;3989;48.810;9.208;2024-03-23T05:21:23;97880.19;;;9.55;100.00
7888;BME280;3989;48.810;9.208;2024-03-23T05:23:51;97805.44;;;9.01;100.00
7888;BME280;3989;48.810;9.208;2024-03-23T05:26:17;97821.63;;;9.06;100.00
7888;BME280;3989;48.810;9.208;2024-03-23T05:31:23;97748.72;;;8.72;100.00
7888;BME280;3989;48.810;9.208;2024-03-23T05:33:52;97833.16;;;9.13;100.00
7888;BME280;3989;48.810;9.208;2024-03-23T05:36:18;97766.19;;;8.60;100.00
7888;BME280;3989;48.810;9.208;2024-03-23T05:38:45;97755.63;;;8.46;100.00
7888;BME280;3989;48.810;9.208;2024-03-23T05:41:11;97898.16;;;9.25;100.00
7888;BME280;3989;48.810;9.208;2024-03-23T05:43:38;97897.16;;;9.26;100.00
7888;BME280;3989;48.810;9.208;2024-03-23T05:46:04;97933.41;;;9.27;100.00
7888;BME280;3989;48.810;9.208;2024-03-23T05:48:32;97838.88;;;8.67;100.00
7888;BME280;3989;48.810;9.208;2024-03-23T05:50:59;97805.06;;;8.40;100.00
7888;BME280;3989;48.810;9.208;2024-03-23T05:53:27;97818.16;;;8.41;100.00
7888;BME280;3989;48.810;9.208;2024-03-23T05:56:00;97731.25;;;7.85;100.00
7888;BME280;3989;48.810;9.208;2024-03-23T05:58:29;97842.47;;;8.38;100.00
7888;BME280;3989;48.810;9.208;2024-03-23T06:00:57;97970.03;;;9.04;100.00
7888;BME280;3989;48.810;9.208;2024-03-23T06:03:26;97794.06;;;7.92;100.00
7888;BME280;3989;48.810;9.208;2024-03-23T06:05:51;97801.09;;;8.00;100.00
7888;BME280;3989;48.810;9.208;2024-03-23T06:08:20;97835.06;;;8.05;100.00
7888;BME280;3989;48.810;9.208;2024-03-23T06:10:46;97881.44;;;8.31;100.00
7888;BME280;3989;48.810;9.208;2024-03-23T06:13:14;97962.22;;;8.66;100.00
7888;BME280;3989;48.810;9.208;2024-03-23T06:15:40;97852.25;;;7.87;100.00
7888;BME280;3989;48.810;9.208;2024-03-23T06:18:07;97973.72;;;8.52;100.00
7888;BME280;3989;48.810;9.208;2024-03-23T06:20:33;97946.84;;;8.62;100.00
7888;BME280;3989;48.810;9.208;2024-03-23T06:23:00;97973.09;;;8.86;100.00
7888;BME280;3989;48.810;9.208;2024-03-23T06:25:27;97970.19;;;8.81;100.00
7888;BME280;3989;48.810;9.208;2024-03-23T06:27:54;97968.69;;;8.93;100.00
7888;BME280;3989;48.810;9.208;2024-03-23T06:30:20;97890.41;;;8.45;100.00
7888;BME280;3989;48.810;9.208;2024-03-23T06:32:51;97989.00;;;9.15;100.00
7888;BME280;3989;48.810;9.208;2024-03-23T06:35:16;97922.63;;;8.71;100.00
7888;BME280;3989;48.810;9.208;2024-03-23T06:37:43;97968.00;;;8.84;100.00
7888;BME280;3989;48.810;9.208;2024-03-23T06:40:09;97992.63;;;9.08;100.00
7888;BME280;3989;48.810;9.208;2024-03-23T06:42:38;97929.69;;;8.64;100.00
7888;BME280;3989;48.810;9.208;2024-03-23T06:45:08;97976.03;;;8.91;100.00
7888;BME280;3989;48.810;9.208;2024-03-23T06:47:37;98062.28;;;9.32;100.00
7888;BME280;3989;48.810;9.208;2024-03-23T06:50:04;98016.63;;;9.14;100.00
7888;BME280;3989;48.810;9.208;2024-03-23T06:52:55;97986.94;;;8.96;100.00
7888;BME280;3989;48.810;9.208;2024-03-23T06:55:28;98083.03;;;9.37;100.00
7888;BME280;3989;48.810;9.208;2024-03-23T06:57:57;98008.59;;;8.93;100.00
7888;BME280;3989;48.810;9.208;2024-03-23T07:00:24;97880.41;;;8.18;100.00
7888;BME280;3989;48.810;9.208;2024-03-23T07:03:02;98101.84;;;9.35;100.00
7888;BME280;3989;48.810;9.208;2024-03-23T07:05:35;98099.28;;;9.27;100.00
7888;BME280;3989;48.810;9.208;2024-03-23T07:08:01;97999.25;;;8.82;100.00
7888;BME280;3989;48.810;9.208;2024-03-23T07:10:28;97944.22;;;8.32;100.00
7888;BME280;3989;48.810;9.208;2024-03-23T07:12:56;97973.38;;;8.55;100.00
7888;BME280;3989;48.810;9.208;2024-03-23T07:15:23;98043.19;;;8.93;100.00
7888;BME280;3989;48.810;9.208;2024-03-23T07:17:49;98046.06;;;8.91;100.00
7888;BME280;3989;48.810;9.208;2024-03-23T07:20:17;97929.34;;;8.09;100.00
7888;BME280;3989;48.810;9.208;2024-03-23T07:22:47;97925.06;;;8.37;100.00
7888;BME280;3989;48.810;9.208;2024-03-23T07:25:14;98008.31;;;9.03;100.00
7888;BME280;3989;48.810;9.208;2024-03-23T07:27:40;97939.66;;;8.77;100.00
7888;BME280;3989;48.810;9.208;2024-03-23T07:30:09;98080.69;;;9.48;100.00
7888;BME280;3989;48.810;9.208;2024-03-23T07:32:36;98076.81;;;9.51;100.00
7888;BME280;3989;48.810;9.208;2024-03-23T07:35:04;98069.66;;;9.30;100.00
7888;BME280;3989;48.810;9.208;2024-03-23T07:37:29;98102.41;;;9.31;100.00
7888;BME280;3989;48.810;9.208;2024-03-23T08:11:33;98135.09;;;7.46;100.00
7888;BME280;3989;48.810;9.208;2024-03-23T08:14:04;98238.44;;;8.09;100.00
7888;BME280;3989;48.810;9.208;2024-03-23T08:16:33;98191.66;;;7.77;100.00
7888;BME280;3989;48.810;9.208;2024-03-23T08:19:00;98232.88;;;7.96;100.00
7888;BME280;3989;48.810;9.208;2024-03-23T08:21:31;98260.78;;;7.92;100.00
7888;BME280;3989;48.810;9.208;2024-03-23T08:24:09;98221.78;;;7.62;100.00
7888;BME280;3989;48.810;9.208;2024-03-23T08:50:53;98295.50;;;8.21;100.00
7888;BME280;3989;48.810;9.208;2024-03-23T09:03:30;98206.34;;;6.31;100.00
7888;BME280;3989;48.810;9.208;2024-03-23T09:09:44;98164.25;;;5.79;100.00
7888;BME280;3989;48.810;9.208;2024-03-23T09:12:12;98381.38;;;7.04;100.00
